Terminal Aerodrome Forecast
Issued by NWS Los Angeles, CA

Home | Current Version | Previous Version | Text Only | Print | Product List | Glossary On
Versions: 1 2 3 4 5 6 7 8 9 10 11 12 13 14 15 16 17 18 19 20 21 22 23 24 25 26 27 28 29 30 31
334
FTUS46 KLOX 240231 AAA
TAFSMX
TAF AMD
KSMX 240231Z 2403/2424 30011KT P6SM SCT015 SCT250
     FM240330 30006KT 4SM BR BKN007
     FM240500 VRB03KT 1 1/2SM BR VCFG OVC004
     FM240600 00000KT 1/2SM FG OVC002
     FM241300 VRB03KT 1 1/2SM BR VCFG OVC004
     FM241500 VRB03KT 5SM BR OVC007
     FM241800 30006KT P6SM SCT012 SCT250=

USA.gov is the U.S. government's official web portal to all federal, state and local government web resources and services.